Hauptseite
METAR-TAF:

METAR-TAF

Flughäfen :

Flughafen Rostock-Laage

Rostock, Deutschland

Breite: 53-55N, Länge: 012-17E, Höhe: 40 m

Beobachtung

Neuester Wetterbericht von vor 37 Minuten, um 12:36 UTC
Wind 6 kt aus West/Südwest
Temperatur 2°C
Luftfeuchtigkeit 93%
Luftdruck 1019 hPa
Sichtweite: 2500 m
Geschlossene Wolkendecke in der Höhe von 300 ft
feuchter Dunst

METAR: ETNL 241236Z 24006KT 2500 BR OVC003 02/01 Q1019 YLO

Zeit: 14:13 (13:13 UTC)

Prognose

Neuester Wetterbericht von vor 28 Minuten, um 12:45 UTC
Gültige Prognose vom 24 um 12 UTC bis 24 um 24 UTC
Wind 8 kt aus West
Sichtweite: 3000 m
Geschlossene Wolkendecke in der Höhe von 300 ft
feuchter Dunst
Zeitweise
vom 24 um 12 UTC bis 24 um 24 UTC
Wind 5 kt aus Südwest
Sichtweite: 0600 m
Geschlossene Wolkendecke in der Höhe von 100 ft
Sprühregen leicht

TAF: ETNL 241245Z 2412/2424 26008KT 3000 BR OVC003 TEMPO 2412/2424 23005KT 0600 -DZ OVC001 BY ETGL

Wetterbeobachtungen und Prognosen von mehr als 4000 Flughäfen (METAR und TAF Bericht).

Die verfügbaren Stationen werden durch gelbe und rote Markierungen auf der Karte dargestellt.

Führen Sie die Maus auf sie, um den Namen der Station zu sehen.

Darauf klicken, um die Beobachtung von Wetterbeobachtungen und Prognosen zu sehen.

Um die Karte zu ändern : klicken Sie auf den grünen Tasten mit einem schwarzen Kreuz Zum Vergrößern, auf den grünen Button mit einem Gedankenstrich zu verkleinern, oder auf die grünen Pfeile für benachbarte Karten.


METAR-TAF: